Viimsi — ES2084 — position and weather

sailwx.info

Track history (hours):
 
Tides and Currents Weather Stations Pressure Air Temp Water Temp Dewpoint Dewpoint Depression Visibility Wind Speed Wind Dir Waves Ship Positions

Viimsi

Last reported at 2017-Aug-22 12:30 UTC. Time now 2017-Aug-22 12:38 UTC.
Position N 59°29' E 024°31'.

Length 78 m; draft 4.7 m.

Type: Tanker. MMSI: 276297000.

Date/timePositionNaut miles runAvg speedWind from/ knotsBaromVisibWave heightAir tempDewpointWater temp
2017-Aug-22 12:30N 59°29' E 024°31'0 0.0
2017-Aug-22 12:00N 59°29' E 024°31'0 0.1
2017-Aug-22 11:30N 59°29' E 024°31'0 0.1
2017-Aug-22 11:00N 59°29' E 024°31'0 0.1
2017-Aug-22 10:30N 59°29' E 024°31'0 0.7
2017-Aug-22 10:00N 59°29' E 024°31'0 0.1
2017-Aug-22 09:31N 59°29' E 024°31'0 0.0
2017-Aug-22 09:00N 59°29' E 024°31'0 0.0
2017-Aug-22 08:30N 59°29' E 024°31'0 0.0
2017-Aug-22 08:00N 59°29' E 024°31'0 0.8
2017-Aug-22 07:31N 59°29' E 024°32'3 5.3
2017-Aug-22 07:01N 59°31' E 024°36'4 7.6
2017-Aug-22 06:31N 59°34' E 024°41'4 8.4
2017-Aug-22 06:01N 59°38' E 024°43'4 8.1
2017-Aug-22 05:31N 59°36' E 024°50'5 9.5
2017-Aug-22 05:00N 59°32' E 024°56'2 4.6
2017-Aug-22 04:30N 59°30' E 024°56'0 0.0
2017-Aug-22 04:00N 59°30' E 024°56'0 0.0
2017-Aug-22 03:30N 59°30' E 024°56'0 0.0
2017-Aug-22 03:00N 59°30' E 024°56'0 0.0
2017-Aug-22 02:31N 59°30' E 024°56'0 0.0
2017-Aug-22 02:00N 59°30' E 024°56'0 0.0
2017-Aug-22 01:31N 59°30' E 024°56'0 0.0
2017-Aug-22 01:01N 59°30' E 024°56'0 0.0
2017-Aug-22 00:30N 59°30' E 024°56'0 0.0
2017-Aug-22 00:00N 59°30' E 024°56'0 0.0
2017-Aug-21 23:30N 59°30' E 024°56'0 0.0
2017-Aug-21 23:01N 59°30' E 024°56'0 0.0
2017-Aug-21 22:31N 59°30' E 024°56'0 0.0
2017-Aug-21 22:00N 59°30' E 024°56'0 0.0
2017-Aug-21 21:30N 59°30' E 024°56'0 0.0
2017-Aug-21 21:00N 59°30' E 024°56'0 0.0
2017-Aug-21 20:30N 59°30' E 024°56'0 0.0
2017-Aug-21 20:00N 59°30' E 024°56'0 0.0
2017-Aug-21 19:31N 59°30' E 024°56'0 0.0
2017-Aug-21 19:01N 59°30' E 024°56'0 0.0
2017-Aug-21 18:30N 59°30' E 024°56'0 0.0
2017-Aug-21 18:00N 59°30' E 024°56'0 0.0
2017-Aug-21 17:30N 59°30' E 024°56'0 0.0
2017-Aug-21 17:00N 59°30' E 024°56'0 0.0
2017-Aug-21 16:31N 59°30' E 024°56'0 0.0
2017-Aug-21 16:00N 59°30' E 024°56'0 0.0
2017-Aug-21 15:30N 59°30' E 024°56'0 0.0
2017-Aug-21 15:00N 59°30' E 024°56'0 0.0
2017-Aug-21 14:30N 59°30' E 024°56'0 0.0
2017-Aug-21 14:00N 59°30' E 024°56'0 0.0
2017-Aug-21 13:31N 59°30' E 024°56'0 0.0
2017-Aug-21 13:00N 59°30' E 024°56'0 0.0
2017-Aug-21 12:30N 59°30' E 024°56'0 0.0
2017-Aug-21 12:00N 59°30' E 024°56'0 0.0
2017-Aug-21 11:30N 59°30' E 024°56'0 0.0
2017-Aug-21 11:00N 59°30' E 024°56'0 0.0
2017-Aug-21 10:30N 59°30' E 024°56'0 0.0
2017-Aug-21 10:00N 59°30' E 024°56'0 0.0
2017-Aug-21 09:30N 59°30' E 024°56'0 0.0
2017-Aug-21 09:01N 59°30' E 024°56'0 0.0
2017-Aug-21 08:30N 59°30' E 024°56'0 0.0
2017-Aug-21 08:00N 59°30' E 024°56'0 0.0
2017-Aug-21 07:30N 59°30' E 024°56'0 0.0
2017-Aug-21 07:00N 59°30' E 024°56'0 0.0
2017-Aug-21 06:30N 59°30' E 024°56'0 0.0
2017-Aug-21 06:00N 59°30' E 024°56'0 0.0
2017-Aug-21 05:31N 59°30' E 024°56'0 0.0
2017-Aug-21 05:00N 59°30' E 024°56'0 0.0
2017-Aug-21 04:30N 59°30' E 024°56'0 0.0
2017-Aug-21 04:00N 59°30' E 024°56'0 0.0
2017-Aug-21 03:30N 59°30' E 024°56'0 0.0
2017-Aug-21 03:01N 59°30' E 024°56'0 0.0
2017-Aug-21 02:30N 59°30' E 024°56'0 0.0
2017-Aug-21 02:00N 59°30' E 024°56'0 0.0
2017-Aug-21 01:30N 59°30' E 024°56'0 0.2
2017-Aug-21 01:01N 59°30' E 024°57'2 4.4
2017-Aug-21 00:30N 59°32' E 024°56'510.5
2017-Aug-21 00:01N 59°36' E 024°49'4 7.6
2017-Aug-20 23:31N 59°36' E 024°42'510.2
2017-Aug-20 23:00N 59°31' E 024°44'510.7
2017-Aug-20 22:30N 59°30' E 024°33'1 2.7
2017-Aug-20 22:00N 59°29' E 024°31'0 0.0
2017-Aug-20 21:30N 59°29' E 024°31'0 0.0
2017-Aug-20 21:00N 59°29' E 024°31'0 0.0
2017-Aug-20 20:30N 59°29' E 024°31'0 0.0
2017-Aug-20 20:00N 59°29' E 024°31'0 0.0
2017-Aug-20 19:30N 59°29' E 024°31'1 1.4
2017-Aug-20 19:00N 59°29' E 024°32'0 0.5
2017-Aug-20 18:30N 59°29' E 024°33'0 0.0
2017-Aug-20 18:00N 59°29' E 024°33'0 0.0
2017-Aug-20 17:30N 59°29' E 024°33'0 0.0
2017-Aug-20 17:00N 59°29' E 024°33'0 0.0
2017-Aug-20 16:31N 59°29' E 024°33'0 0.0
2017-Aug-20 16:00N 59°29' E 024°33'0 0.1
2017-Aug-20 15:31N 59°29' E 024°33'0 0.1
2017-Aug-20 15:00N 59°29' E 024°33'0 0.1
2017-Aug-20 14:31N 59°29' E 024°33'0 0.0
2017-Aug-20 14:00N 59°29' E 024°33'0 0.1
2017-Aug-20 13:30N 59°29' E 024°33'2 3.6
2017-Aug-20 13:00N 59°30' E 024°36'3 6.5
2017-Aug-20 12:31N 59°30' E 024°42'2 4.9
2017-Aug-20 12:01N 59°28' E 024°43'0 0.1
2017-Aug-20 11:30N 59°28' E 024°43'0 0.0
2017-Aug-20 11:00N 59°28' E 024°43'0 0.0
2017-Aug-20 10:30N 59°28' E 024°43'0 0.0
2017-Aug-20 10:00N 59°28' E 024°43'0 0.0
2017-Aug-20 09:31N 59°28' E 024°43'0 0.0
2017-Aug-20 09:00N 59°28' E 024°43'0 0.0
2017-Aug-20 08:30N 59°28' E 024°43'0 0.0
2017-Aug-20 08:00N 59°28' E 024°43'0 0.0
2017-Aug-20 07:30N 59°28' E 024°43'0 0.0
2017-Aug-20 07:00N 59°28' E 024°43'0 0.0
2017-Aug-20 06:30N 59°28' E 024°43'0 0.0
2017-Aug-20 06:01N 59°28' E 024°43'0 0.0
2017-Aug-20 05:31N 59°28' E 024°43'0 0.0
2017-Aug-20 05:01N 59°28' E 024°43'0 0.0
2017-Aug-20 04:30N 59°28' E 024°43'0 0.0
2017-Aug-20 04:00N 59°28' E 024°43'0 0.0
2017-Aug-20 03:31N 59°28' E 024°43'0 0.0
2017-Aug-20 03:01N 59°28' E 024°43'0 0.0
2017-Aug-20 02:30N 59°28' E 024°43'0 0.0
2017-Aug-20 02:00N 59°28' E 024°43'0 0.0
2017-Aug-20 01:31N 59°28' E 024°43'0 0.0
2017-Aug-20 01:00N 59°28' E 024°43'0 0.0
2017-Aug-20 00:30N 59°28' E 024°43'0 0.0
2017-Aug-20 00:00N 59°28' E 024°43'0 0.0
2017-Aug-19 23:30N 59°28' E 024°43'0 0.0
2017-Aug-19 23:00N 59°28' E 024°43'0 0.0
2017-Aug-19 22:30N 59°28' E 024°43'0 0.0
2017-Aug-19 22:00N 59°28' E 024°43'0 0.0
2017-Aug-19 21:30N 59°28' E 024°43'0 0.0
2017-Aug-19 21:00N 59°28' E 024°43'0 0.0
2017-Aug-19 20:30N 59°28' E 024°43'0 0.0
2017-Aug-19 20:00N 59°28' E 024°43'0 0.0
2017-Aug-19 19:30N 59°28' E 024°43'0 0.0
2017-Aug-19 19:00N 59°28' E 024°43'0 0.0
2017-Aug-19 18:30N 59°28' E 024°43'0 0.0
2017-Aug-19 18:00N 59°28' E 024°43'0 0.0
2017-Aug-19 17:30N 59°28' E 024°43'0 0.0
2017-Aug-19 17:01N 59°28' E 024°43'0 0.0
2017-Aug-19 16:30N 59°28' E 024°43'0 0.0
2017-Aug-19 16:00N 59°28' E 024°43'0 0.0
2017-Aug-19 15:30N 59°28' E 024°43'0 0.0
2017-Aug-19 15:00N 59°28' E 024°43'0 0.0
2017-Aug-19 14:00N 59°28' E 024°43'0 0.0
2017-Aug-19 13:31N 59°28' E 024°43'0 0.0
2017-Aug-19 13:00N 59°28' E 024°43'0 0.0
2017-Aug-19 12:30N 59°28' E 024°43'0 0.0
2017-Aug-19 12:00N 59°28' E 024°43'0 0.0
2017-Aug-19 11:30N 59°28' E 024°43'0 0.0
2017-Aug-19 11:00N 59°28' E 024°43'0 0.0
2017-Aug-19 10:30N 59°28' E 024°43'0 0.0
2017-Aug-19 10:00N 59°28' E 024°43'0 0.0
2017-Aug-19 09:30N 59°28' E 024°43'0 0.0
2017-Aug-19 09:01N 59°28' E 024°43'0 0.0
2017-Aug-19 08:30N 59°28' E 024°43'0 0.0
2017-Aug-19 08:00N 59°28' E 024°43'0 0.0
2017-Aug-19 07:30N 59°28' E 024°43'0 0.0
2017-Aug-19 07:00N 59°28' E 024°43'0 0.0
2017-Aug-19 06:30N 59°28' E 024°43'0 0.0
2017-Aug-19 06:00N 59°28' E 024°43'0 0.0
2017-Aug-19 05:30N 59°28' E 024°43'0 0.0
2017-Aug-19 05:00N 59°28' E 024°43'0 0.0
2017-Aug-19 04:30N 59°28' E 024°43'0 0.0
2017-Aug-19 04:00N 59°28' E 024°43'0 0.0
2017-Aug-19 03:30N 59°28' E 024°43'0 0.0
2017-Aug-19 03:00N 59°28' E 024°43'0 0.0
2017-Aug-19 02:31N 59°28' E 024°43'0 0.0
2017-Aug-19 02:00N 59°28' E 024°43'0 0.0
2017-Aug-19 01:30N 59°28' E 024°43'0 0.0
2017-Aug-19 01:00N 59°28' E 024°43'0 0.0
2017-Aug-19 00:30N 59°28' E 024°43'0 0.2
2017-Aug-19 00:00N 59°28' E 024°43'4 7.0
2017-Aug-18 23:30N 59°31' E 024°43'510.1
2017-Aug-18 23:00N 59°36' E 024°40'3 6.7
2017-Aug-18 22:30N 59°37' E 024°47'2 3.5
2017-Aug-18 22:00N 59°35' E 024°49'0 0.0
2017-Aug-18 21:30N 59°35' E 024°49'0 0.0
2017-Aug-18 21:00N 59°35' E 024°49'0 0.0
2017-Aug-18 20:30N 59°35' E 024°49'0 0.0
2017-Aug-18 20:00N 59°35' E 024°49'0 0.0
2017-Aug-18 19:30N 59°35' E 024°49'0 0.2
2017-Aug-18 19:00N 59°35' E 024°49'2 3.7
2017-Aug-18 18:30N 59°34' E 024°52'3 5.6
2017-Aug-18 18:00N 59°32' E 024°56'3 5.3
2017-Aug-18 17:30N 59°30' E 024°57'0 0.4
2017-Aug-18 17:00N 59°30' E 024°56'0 0.0
2017-Aug-18 16:30N 59°30' E 024°56'0 0.0
2017-Aug-18 16:00N 59°30' E 024°56'0 0.0
2017-Aug-18 15:30N 59°30' E 024°56'0 0.0
2017-Aug-18 15:00N 59°30' E 024°56'0 0.0
2017-Aug-18 14:00N 59°30' E 024°56'0 0.0
2017-Aug-18 13:30N 59°30' E 024°56'0 0.0
2017-Aug-18 13:00N 59°30' E 024°56'0 0.0
2017-Aug-18 12:30N 59°30' E 024°56'0 0.0
2017-Aug-18 12:00N 59°30' E 024°56'0 0.0
2017-Aug-18 11:30N 59°30' E 024°56'0 0.1
2017-Aug-18 11:01N 59°30' E 024°57'3 6.8
2017-Aug-18 10:30N 59°33' E 024°54'3 6.2
2017-Aug-18 10:00N 59°35' E 024°49'0 0.0
2017-Aug-18 09:30N 59°35' E 024°49'0 0.0
2017-Aug-18 09:00N 59°35' E 024°49'0 0.0
2017-Aug-18 08:30N 59°35' E 024°49'0 0.0
2017-Aug-18 08:00N 59°35' E 024°49'0 0.0
2017-Aug-18 07:30N 59°35' E 024°49'0 0.0
2017-Aug-18 07:01N 59°35' E 024°49'0 0.1
2017-Aug-18 06:30N 59°35' E 024°49'0 0.2
2017-Aug-18 06:00N 59°35' E 024°49'0 0.5
2017-Aug-18 05:30N 59°35' E 024°50'1 1.2
2017-Aug-18 05:00N 59°34' E 024°51'2 4.0
2017-Aug-18 04:30N 59°33' E 024°54'3 5.3
2017-Aug-18 04:01N 59°31' E 024°57'1 2.5
2017-Aug-18 03:30N 59°30' E 024°58'0 0.0
2017-Aug-18 03:00N 59°30' E 024°58'0 0.0
2017-Aug-18 02:30N 59°30' E 024°58'0 0.0
2017-Aug-18 02:00N 59°30' E 024°58'0 0.0
2017-Aug-18 01:30N 59°30' E 024°58'0 0.0
2017-Aug-18 01:00N 59°30' E 024°58'0 0.0
2017-Aug-18 00:30N 59°30' E 024°58'0 0.0
2017-Aug-18 00:00N 59°30' E 024°58'0 0.0
2017-Aug-17 23:30N 59°30' E 024°58'0 0.0
2017-Aug-17 23:01N 59°30' E 024°58'0 0.0
2017-Aug-17 22:30N 59°30' E 024°58'0 0.0
2017-Aug-17 22:01N 59°30' E 024°58'0 0.1
2017-Aug-17 21:31N 59°30' E 024°57'1 1.0
2017-Aug-17 21:01N 59°30' E 024°57'0 0.0
2017-Aug-17 20:30N 59°30' E 024°57'0 0.0
2017-Aug-17 20:01N 59°30' E 024°57'0 0.0
2017-Aug-17 19:31N 59°30' E 024°57'0 0.0
2017-Aug-17 19:01N 59°30' E 024°57'0 0.0
2017-Aug-17 18:30N 59°30' E 024°57'0 0.0
2017-Aug-17 18:00N 59°30' E 024°57'0 0.0
2017-Aug-17 17:31N 59°30' E 024°57'0 0.0
2017-Aug-17 17:01N 59°30' E 024°57'0 0.0
2017-Aug-17 16:31N 59°30' E 024°57'0 0.0
2017-Aug-17 16:01N 59°30' E 024°57'0 0.0
2017-Aug-17 15:30N 59°30' E 024°57'0 0.0
2017-Aug-17 15:01N 59°30' E 024°57'0 0.0
2017-Aug-17 14:31N 59°30' E 024°57'0 0.0
2017-Aug-17 14:01N 59°30' E 024°57'0 0.0
2017-Aug-17 13:31N 59°30' E 024°57'0 0.0
2017-Aug-17 13:01N 59°30' E 024°57'0 0.0
2017-Aug-17 12:31N 59°30' E 024°57'0 0.0
2017-Aug-17 12:01N 59°30' E 024°57'0 0.0
2017-Aug-17 11:31N 59°30' E 024°57'0 0.0
2017-Aug-17 11:01N 59°30' E 024°57'0 0.0
2017-Aug-17 10:31N 59°30' E 024°57'0 0.0
2017-Aug-17 10:01N 59°30' E 024°57'0 0.0
2017-Aug-17 09:31N 59°30' E 024°57'0 0.0
2017-Aug-17 09:01N 59°30' E 024°57'0 0.0
2017-Aug-17 08:30N 59°30' E 024°57'0 0.0
2017-Aug-17 08:00N 59°30' E 024°57'0 0.0
2017-Aug-17 07:30N 59°30' E 024°57'0 0.0
2017-Aug-17 07:01N 59°30' E 024°57'0 0.0
2017-Aug-17 06:31N 59°30' E 024°57'0 0.0
2017-Aug-17 06:01N 59°30' E 024°57'0 0.0
2017-Aug-17 05:31N 59°30' E 024°57'0 0.0
2017-Aug-17 05:01N 59°30' E 024°57'0 0.0
2017-Aug-17 04:31N 59°30' E 024°57'0 0.0
2017-Aug-17 04:01N 59°30' E 024°57'0 0.3
2017-Aug-17 03:30N 59°30' E 024°56'0 0.0
2017-Aug-17 03:00N 59°30' E 024°56'0 0.0
2017-Aug-17 02:30N 59°30' E 024°56'0 0.0
2017-Aug-17 02:00N 59°30' E 024°56'0 0.0
2017-Aug-17 01:30N 59°30' E 024°56'0 0.0
2017-Aug-17 01:00N 59°30' E 024°56'0 0.0
2017-Aug-17 00:30N 59°30' E 024°56'0 0.0
2017-Aug-17 00:00N 59°30' E 024°56'0 0.0
2017-Aug-16 23:30N 59°30' E 024°56'0 0.0
2017-Aug-16 23:00N 59°30' E 024°56'0 0.0
2017-Aug-16 22:30N 59°30' E 024°56'0 0.0
2017-Aug-16 22:00N 59°30' E 024°56'2 5.0
2017-Aug-16 21:31N 59°32' E 024°55'510.0
2017-Aug-16 21:00N 59°36' E 024°49'4 7.1
2017-Aug-16 20:31N 59°35' E 024°42'4 8.3
2017-Aug-16 20:01N 59°31' E 024°44'510.2
2017-Aug-16 19:31N 59°30' E 024°34'2 3.2
2017-Aug-16 19:01N 59°29' E 024°31'0 0.0
2017-Aug-16 18:30N 59°29' E 024°31'0 0.0
2017-Aug-16 18:01N 59°29' E 024°31'0 0.0
2017-Aug-16 17:30N 59°29' E 024°31'0 0.0
2017-Aug-16 17:00N 59°29' E 024°31'0 0.0
2017-Aug-16 16:31N 59°29' E 024°31'0 0.0
2017-Aug-16 16:00N 59°29' E 024°31'0 0.0
2017-Aug-16 15:31N 59°29' E 024°32'1 2.7
2017-Aug-16 15:01N 59°29' E 024°34'3 5.4
2017-Aug-16 14:31N 59°28' E 024°39'0 0.1
2017-Aug-16 14:00N 59°28' E 024°39'0 0.0
2017-Aug-16 13:31N 59°28' E 024°39'0 0.0
2017-Aug-16 13:00N 59°28' E 024°39'0 0.0
2017-Aug-16 12:30N 59°28' E 024°39'0 0.0
2017-Aug-16 12:01N 59°28' E 024°39'0 0.0
2017-Aug-16 11:31N 59°28' E 024°39'0 0.0
2017-Aug-16 11:00N 59°28' E 024°39'0 0.0
2017-Aug-16 10:30N 59°28' E 024°39'0 0.0
2017-Aug-16 10:00N 59°28' E 024°39'0 0.0
2017-Aug-16 09:30N 59°28' E 024°39'0 0.0
2017-Aug-16 09:01N 59°28' E 024°39'0 0.0
2017-Aug-16 08:31N 59°28' E 024°39'0 0.0
2017-Aug-16 08:00N 59°28' E 024°39'0 0.0
2017-Aug-16 07:30N 59°28' E 024°39'0 0.0
2017-Aug-16 07:00N 59°28' E 024°39'0 0.0
2017-Aug-16 06:30N 59°28' E 024°39'0 0.0
2017-Aug-16 06:01N 59°28' E 024°39'0 0.0
2017-Aug-16 05:30N 59°28' E 024°39'0 0.0
2017-Aug-16 05:00N 59°28' E 024°39'0 0.0
2017-Aug-16 04:30N 59°28' E 024°39'0 0.0
2017-Aug-16 04:01N 59°28' E 024°39'0 0.0
2017-Aug-16 03:30N 59°28' E 024°39'0 0.0
2017-Aug-16 03:00N 59°28' E 024°39'0 0.0
2017-Aug-16 02:31N 59°28' E 024°39'0 0.0
2017-Aug-16 02:00N 59°28' E 024°39'0 0.0
2017-Aug-16 01:31N 59°28' E 024°39'0 0.0
2017-Aug-16 01:00N 59°28' E 024°39'0 0.0
2017-Aug-16 00:31N 59°28' E 024°39'0 0.0
2017-Aug-16 00:00N 59°28' E 024°39'0 0.0
2017-Aug-15 23:30N 59°28' E 024°39'0 0.0
2017-Aug-15 23:00N 59°28' E 024°39'0 0.0
2017-Aug-15 22:31N 59°28' E 024°39'0 0.0
2017-Aug-15 22:00N 59°28' E 024°39'0 0.0
2017-Aug-15 21:30N 59°28' E 024°39'0 0.0
2017-Aug-15 21:01N 59°28' E 024°39'0 0.0
2017-Aug-15 20:31N 59°28' E 024°39'0 0.0
2017-Aug-15 20:00N 59°28' E 024°39'0 0.0
2017-Aug-15 19:31N 59°28' E 024°39'0 0.0
2017-Aug-15 19:00N 59°28' E 024°39'0 0.0
2017-Aug-15 18:30N 59°28' E 024°39'0 0.0
2017-Aug-15 18:00N 59°28' E 024°39'0 0.0
2017-Aug-15 17:31N 59°28' E 024°39'0 0.0
2017-Aug-15 17:00N 59°28' E 024°39'0 0.0
2017-Aug-15 16:30N 59°28' E 024°39'0 0.0
2017-Aug-15 16:00N 59°28' E 024°39'0 0.0
2017-Aug-15 15:31N 59°28' E 024°39'0 0.0
2017-Aug-15 15:01N 59°28' E 024°39'0 0.0
2017-Aug-15 14:31N 59°28' E 024°39'0 0.0
2017-Aug-15 14:01N 59°28' E 024°39'0 0.0
2017-Aug-15 13:30N 59°28' E 024°39'0 0.0
2017-Aug-15 13:00N 59°28' E 024°39'0 0.0
2017-Aug-15 12:30N 59°28' E 024°39'0 0.0
2017-Aug-15 12:01N 59°28' E 024°39'0 0.0
2017-Aug-15 11:30N 59°28' E 024°39'3 6.3
2017-Aug-15 11:00N 59°31' E 024°37'4 8.9
2017-Aug-15 10:31N 59°35' E 024°41'4 7.6
2017-Aug-15 10:01N 59°38' E 024°45'3 6.0
2017-Aug-15 09:31N 59°35' E 024°49'0 0.1
2017-Aug-15 09:00N 59°35' E 024°49'0 0.1
2017-Aug-15 08:31N 59°35' E 024°49'0 0.0
2017-Aug-15 08:00N 59°35' E 024°49'0 0.0
2017-Aug-15 07:31N 59°35' E 024°49'0 0.1
2017-Aug-15 07:01N 59°35' E 024°49'4 7.7
2017-Aug-15 06:30N 59°33' E 024°55'3 6.5
2017-Aug-15 06:00N 59°30' E 024°56'0 0.0
2017-Aug-15 05:31N 59°30' E 024°56'0 0.0
2017-Aug-15 05:01N 59°30' E 024°56'0 0.0
2017-Aug-15 04:31N 59°30' E 024°56'0 0.0
2017-Aug-15 04:00N 59°30' E 024°56'0 0.0
2017-Aug-15 03:30N 59°30' E 024°56'0 0.0
2017-Aug-15 03:00N 59°30' E 024°56'0 0.0
2017-Aug-15 02:30N 59°30' E 024°56'0 0.0
2017-Aug-15 02:00N 59°30' E 024°56'0 0.0
2017-Aug-15 01:30N 59°30' E 024°56'0 0.0
2017-Aug-15 01:01N 59°30' E 024°56'0 0.0
2017-Aug-15 00:31N 59°30' E 024°56'0 0.1
2017-Aug-15 00:01N 59°30' E 024°56'0 0.0
2017-Aug-14 23:30N 59°30' E 024°56'0 0.0
2017-Aug-14 23:00N 59°30' E 024°56'0 0.0
2017-Aug-14 22:31N 59°30' E 024°56'0 0.0
2017-Aug-14 22:01N 59°30' E 024°56'0 0.0
2017-Aug-14 21:31N 59°30' E 024°57'0 0.9
2017-Aug-14 21:01N 59°30' E 024°57'0 0.0
2017-Aug-14 20:31N 59°30' E 024°57'0 0.0
2017-Aug-14 20:00N 59°30' E 024°57'0 0.0
2017-Aug-14 19:30N 59°30' E 024°57'0 0.0
2017-Aug-14 19:00N 59°30' E 024°57'0 0.0
2017-Aug-14 18:30N 59°30' E 024°57'0 0.0
2017-Aug-14 18:01N 59°30' E 024°57'0 0.0
2017-Aug-14 17:30N 59°30' E 024°57'0 0.0
2017-Aug-14 17:01N 59°30' E 024°57'0 0.0
2017-Aug-14 16:30N 59°30' E 024°57'0 0.0
2017-Aug-14 16:01N 59°30' E 024°57'2 3.6
2017-Aug-14 15:30N 59°31' E 024°57'510.6
2017-Aug-14 15:01N 59°35' E 024°50'4 8.8
2017-Aug-14 14:30N 59°37' E 024°41'510.0
2017-Aug-14 14:00N 59°32' E 024°44'510.3
2017-Aug-14 13:31N 59°30' E 024°35'1 2.5
2017-Aug-14 13:01N 59°29' E 024°33'0 0.0
2017-Aug-14 12:31N 59°29' E 024°33'0 0.0
2017-Aug-14 12:00N 59°29' E 024°33'0 0.0
2017-Aug-14 11:31N 59°29' E 024°33'0 0.0
2017-Aug-14 11:00N 59°29' E 024°33'0 0.0
2017-Aug-14 10:30N 59°29' E 024°33'0 0.2
2017-Aug-14 10:01N 59°29' E 024°33'1 1.8
2017-Aug-14 09:30N 59°29' E 024°31'0 0.0
2017-Aug-14 09:00N 59°29' E 024°31'0 0.0
2017-Aug-14 08:31N 59°29' E 024°31'0 0.0
2017-Aug-14 08:01N 59°29' E 024°31'0 0.0
2017-Aug-14 07:31N 59°29' E 024°31'0 0.0
2017-Aug-14 07:00N 59°29' E 024°31'0 0.0
2017-Aug-14 06:31N 59°29' E 024°31'0 0.0
2017-Aug-14 06:00N 59°29' E 024°31'0 0.0
2017-Aug-14 05:31N 59°29' E 024°31'3 5.5
2017-Aug-14 05:00N 59°28' E 024°36'2 3.2
2017-Aug-14 04:31N 59°28' E 024°39'0 0.0
2017-Aug-14 04:00N 59°28' E 024°39'0 0.0
2017-Aug-14 03:30N 59°28' E 024°39'0 0.0
2017-Aug-14 03:00N 59°28' E 024°39'0 0.0
2017-Aug-14 02:31N 59°28' E 024°39'0 0.0
2017-Aug-14 02:01N 59°28' E 024°39'0 0.0
2017-Aug-14 01:31N 59°28' E 024°39'0 0.0
2017-Aug-14 01:00N 59°28' E 024°39'0 0.0
2017-Aug-14 00:31N 59°28' E 024°39'0 0.0
2017-Aug-14 00:01N 59°28' E 024°39'0 0.0
2017-Aug-13 23:31N 59°28' E 024°39'0 0.0
2017-Aug-13 23:01N 59°28' E 024°39'0 0.0
2017-Aug-13 22:30N 59°28' E 024°39'0 0.0
2017-Aug-13 22:00N 59°28' E 024°39'1 1.6
2017-Aug-13 21:31N 59°28' E 024°37'4 7.5
2017-Aug-13 21:01N 59°29' E 024°30'0 0.0
2017-Aug-13 20:31N 59°29' E 024°30'0 0.0
2017-Aug-13 20:00N 59°29' E 024°30'0 0.0
2017-Aug-13 19:30N 59°29' E 024°30'0 0.0
2017-Aug-13 19:01N 59°29' E 024°30'0 0.0
2017-Aug-13 18:30N 59°29' E 024°30'0 0.1
2017-Aug-13 18:00N 59°29' E 024°30'0 0.0
2017-Aug-13 17:30N 59°29' E 024°30'0 0.0
2017-Aug-13 17:00N 59°29' E 024°30'2 3.7
2017-Aug-13 16:30N 59°30' E 024°34'5 9.6
2017-Aug-13 16:01N 59°34' E 024°39'4 8.9
2017-Aug-13 15:30N 59°38' E 024°44'5 9.3
2017-Aug-13 15:01N 59°35' E 024°50'0 0.4
2017-Aug-13 14:30N 59°35' E 024°50'0 0.2
2017-Aug-13 14:00N 59°34' E 024°50'0 0.0
2017-Aug-13 13:31N 59°34' E 024°50'0 0.7
2017-Aug-13 13:00N 59°34' E 024°50'1 2.6
2017-Aug-13 12:31N 59°34' E 024°53'2 3.7
2017-Aug-13 12:01N 59°33' E 024°56'3 5.5
2017-Aug-13 11:31N 59°30' E 024°57'1 1.3
2017-Aug-13 11:00N 59°30' E 024°56'0 0.0
2017-Aug-13 10:30N 59°30' E 024°56'0 0.0
2017-Aug-13 10:01N 59°30' E 024°56'0 0.0
2017-Aug-13 09:30N 59°30' E 024°56'0 0.0
2017-Aug-13 09:00N 59°30' E 024°56'0 0.0
2017-Aug-13 08:31N 59°30' E 024°56'0 0.0
2017-Aug-13 08:00N 59°30' E 024°56'0 0.0
2017-Aug-13 07:31N 59°30' E 024°56'0 0.0
2017-Aug-13 07:00N 59°30' E 024°56'0 0.0
2017-Aug-13 06:31N 59°30' E 024°56'0 0.4
2017-Aug-13 06:00N 59°30' E 024°57'0 0.0
2017-Aug-13 05:31N 59°30' E 024°57'0 0.0
2017-Aug-13 05:01N 59°30' E 024°57'0 0.0
2017-Aug-13 04:31N 59°30' E 024°57'0 0.0
2017-Aug-13 04:00N 59°30' E 024°57'0 0.0
2017-Aug-13 03:31N 59°30' E 024°57'0 0.0
2017-Aug-13 03:00N 59°30' E 024°57'0 0.2
2017-Aug-13 02:31N 59°30' E 024°57'0 0.4
2017-Aug-13 02:01N 59°30' E 024°56'0 0.0
2017-Aug-13 01:31N 59°30' E 024°56'0 0.0
2017-Aug-13 01:01N 59°30' E 024°56'0 0.0
2017-Aug-13 00:31N 59°30' E 024°56'1 1.6
2017-Aug-13 00:01N 59°30' E 024°58'5 9.4
2017-Aug-12 23:31N 59°34' E 024°52'2 3.2
2017-Aug-12 23:00N 59°35' E 024°49'0 0.1
2017-Aug-12 22:30N 59°35' E 024°49'1 1.3
2017-Aug-12 22:01N 59°35' E 024°49'0 0.0
2017-Aug-12 21:31N 59°35' E 024°49'0 0.0
2017-Aug-12 21:01N 59°35' E 024°49'0 0.1
2017-Aug-12 20:30N 59°35' E 024°49'2 4.6
2017-Aug-12 20:01N 59°37' E 024°46'3 6.3
2017-Aug-12 19:30N 59°34' E 024°43'4 8.0
2017-Aug-12 19:00N 59°30' E 024°40'4 8.6
2017-Aug-12 18:31N 59°29' E 024°32'0 0.2
2017-Aug-12 18:01N 59°29' E 024°32'0 0.1
2017-Aug-12 17:30N 59°29' E 024°32'0 0.1
2017-Aug-12 17:00N 59°29' E 024°32'0 0.2
2017-Aug-12 16:31N 59°29' E 024°32'0 0.0
2017-Aug-12 16:01N 59°29' E 024°32'0 0.2
2017-Aug-12 15:31N 59°29' E 024°32'0 0.3
2017-Aug-12 15:00N 59°29' E 024°32'0 0.0
2017-Aug-12 14:31N 59°29' E 024°32'0 0.3
2017-Aug-12 14:01N 59°29' E 024°32'1 1.1
2017-Aug-12 13:30N 59°29' E 024°31'0 0.0
2017-Aug-12 13:01N 59°29' E 024°32'0 0.0
2017-Aug-12 12:31N 59°29' E 024°32'  
Track history (hours):
 
Tides and Currents Weather Stations Pressure Air Temp Water Temp Dewpoint Dewpoint Depression Visibility Wind Speed Wind Dir Waves Ship Positions

Viimsi

Last reported at 2017-Aug-22 12:30 UTC. Time now 2017-Aug-22 12:38 UTC.
Position N 59°29' E 024°31'.

Length 78 m; draft 4.7 m.

Type: Tanker. MMSI: 276297000.

Date/timePositionNaut miles runAvg speedWind from/ knotsBaromVisibWave heightAir tempDewpointWater temp
2017-Aug-22 12:30N 59°29' E 024°31'0 0.0
2017-Aug-22 12:00N 59°29' E 024°31'0 0.1
2017-Aug-22 11:30N 59°29' E 024°31'0 0.1
2017-Aug-22 11:00N 59°29' E 024°31'0 0.1
2017-Aug-22 10:30N 59°29' E 024°31'0 0.7
2017-Aug-22 10:00N 59°29' E 024°31'0 0.1
2017-Aug-22 09:31N 59°29' E 024°31'0 0.0
2017-Aug-22 09:00N 59°29' E 024°31'0 0.0
2017-Aug-22 08:30N 59°29' E 024°31'0 0.0
2017-Aug-22 08:00N 59°29' E 024°31'0 0.8
2017-Aug-22 07:31N 59°29' E 024°32'3 5.3
2017-Aug-22 07:01N 59°31' E 024°36'4 7.6
2017-Aug-22 06:31N 59°34' E 024°41'4 8.4
2017-Aug-22 06:01N 59°38' E 024°43'4 8.1
2017-Aug-22 05:31N 59°36' E 024°50'5 9.5
2017-Aug-22 05:00N 59°32' E 024°56'2 4.6
2017-Aug-22 04:30N 59°30' E 024°56'0 0.0
2017-Aug-22 04:00N 59°30' E 024°56'0 0.0
2017-Aug-22 03:30N 59°30' E 024°56'0 0.0
2017-Aug-22 03:00N 59°30' E 024°56'0 0.0
2017-Aug-22 02:31N 59°30' E 024°56'0 0.0
2017-Aug-22 02:00N 59°30' E 024°56'0 0.0
2017-Aug-22 01:31N 59°30' E 024°56'0 0.0
2017-Aug-22 01:01N 59°30' E 024°56'0 0.0
2017-Aug-22 00:30N 59°30' E 024°56'0 0.0
2017-Aug-22 00:00N 59°30' E 024°56'0 0.0
2017-Aug-21 23:30N 59°30' E 024°56'0 0.0
2017-Aug-21 23:01N 59°30' E 024°56'0 0.0
2017-Aug-21 22:31N 59°30' E 024°56'0 0.0
2017-Aug-21 22:00N 59°30' E 024°56'0 0.0
2017-Aug-21 21:30N 59°30' E 024°56'0 0.0
2017-Aug-21 21:00N 59°30' E 024°56'0 0.0
2017-Aug-21 20:30N 59°30' E 024°56'0 0.0
2017-Aug-21 20:00N 59°30' E 024°56'0 0.0
2017-Aug-21 19:31N 59°30' E 024°56'0 0.0
2017-Aug-21 19:01N 59°30' E 024°56'0 0.0
2017-Aug-21 18:30N 59°30' E 024°56'0 0.0
2017-Aug-21 18:00N 59°30' E 024°56'0 0.0
2017-Aug-21 17:30N 59°30' E 024°56'0 0.0
2017-Aug-21 17:00N 59°30' E 024°56'0 0.0
2017-Aug-21 16:31N 59°30' E 024°56'0 0.0
2017-Aug-21 16:00N 59°30' E 024°56'0 0.0
2017-Aug-21 15:30N 59°30' E 024°56'0 0.0
2017-Aug-21 15:00N 59°30' E 024°56'0 0.0
2017-Aug-21 14:30N 59°30' E 024°56'0 0.0
2017-Aug-21 14:00N 59°30' E 024°56'0 0.0
2017-Aug-21 13:31N 59°30' E 024°56'0 0.0
2017-Aug-21 13:00N 59°30' E 024°56'0 0.0
2017-Aug-21 12:30N 59°30' E 024°56'0 0.0
2017-Aug-21 12:00N 59°30' E 024°56'0 0.0
2017-Aug-21 11:30N 59°30' E 024°56'0 0.0
2017-Aug-21 11:00N 59°30' E 024°56'0 0.0
2017-Aug-21 10:30N 59°30' E 024°56'0 0.0
2017-Aug-21 10:00N 59°30' E 024°56'0 0.0
2017-Aug-21 09:30N 59°30' E 024°56'0 0.0
2017-Aug-21 09:01N 59°30' E 024°56'0 0.0
2017-Aug-21 08:30N 59°30' E 024°56'0 0.0
2017-Aug-21 08:00N 59°30' E 024°56'0 0.0
2017-Aug-21 07:30N 59°30' E 024°56'0 0.0
2017-Aug-21 07:00N 59°30' E 024°56'0 0.0
2017-Aug-21 06:30N 59°30' E 024°56'0 0.0
2017-Aug-21 06:00N 59°30' E 024°56'0 0.0
2017-Aug-21 05:31N 59°30' E 024°56'0 0.0
2017-Aug-21 05:00N 59°30' E 024°56'0 0.0
2017-Aug-21 04:30N 59°30' E 024°56'0 0.0
2017-Aug-21 04:00N 59°30' E 024°56'0 0.0
2017-Aug-21 03:30N 59°30' E 024°56'0 0.0
2017-Aug-21 03:01N 59°30' E 024°56'0 0.0
2017-Aug-21 02:30N 59°30' E 024°56'0 0.0
2017-Aug-21 02:00N 59°30' E 024°56'0 0.0
2017-Aug-21 01:30N 59°30' E 024°56'0 0.2
2017-Aug-21 01:01N 59°30' E 024°57'2 4.4
2017-Aug-21 00:30N 59°32' E 024°56'510.5
2017-Aug-21 00:01N 59°36' E 024°49'4 7.6
2017-Aug-20 23:31N 59°36' E 024°42'510.2
2017-Aug-20 23:00N 59°31' E 024°44'510.7
2017-Aug-20 22:30N 59°30' E 024°33'1 2.7
2017-Aug-20 22:00N 59°29' E 024°31'0 0.0
2017-Aug-20 21:30N 59°29' E 024°31'0 0.0
2017-Aug-20 21:00N 59°29' E 024°31'0 0.0
2017-Aug-20 20:30N 59°29' E 024°31'0 0.0
2017-Aug-20 20:00N 59°29' E 024°31'0 0.0
2017-Aug-20 19:30N 59°29' E 024°31'1 1.4
2017-Aug-20 19:00N 59°29' E 024°32'0 0.5
2017-Aug-20 18:30N 59°29' E 024°33'0 0.0
2017-Aug-20 18:00N 59°29' E 024°33'0 0.0
2017-Aug-20 17:30N 59°29' E 024°33'0 0.0
2017-Aug-20 17:00N 59°29' E 024°33'0 0.0
2017-Aug-20 16:31N 59°29' E 024°33'0 0.0
2017-Aug-20 16:00N 59°29' E 024°33'0 0.1
2017-Aug-20 15:31N 59°29' E 024°33'0 0.1
2017-Aug-20 15:00N 59°29' E 024°33'0 0.1
2017-Aug-20 14:31N 59°29' E 024°33'0 0.0
2017-Aug-20 14:00N 59°29' E 024°33'0 0.1
2017-Aug-20 13:30N 59°29' E 024°33'2 3.6
2017-Aug-20 13:00N 59°30' E 024°36'3 6.5
2017-Aug-20 12:31N 59°30' E 024°42'2 4.9
2017-Aug-20 12:01N 59°28' E 024°43'0 0.1
2017-Aug-20 11:30N 59°28' E 024°43'0 0.0
2017-Aug-20 11:00N 59°28' E 024°43'0 0.0
2017-Aug-20 10:30N 59°28' E 024°43'0 0.0
2017-Aug-20 10:00N 59°28' E 024°43'0 0.0
2017-Aug-20 09:31N 59°28' E 024°43'0 0.0
2017-Aug-20 09:00N 59°28' E 024°43'0 0.0
2017-Aug-20 08:30N 59°28' E 024°43'0 0.0
2017-Aug-20 08:00N 59°28' E 024°43'0 0.0
2017-Aug-20 07:30N 59°28' E 024°43'0 0.0
2017-Aug-20 07:00N 59°28' E 024°43'0 0.0
2017-Aug-20 06:30N 59°28' E 024°43'0 0.0
2017-Aug-20 06:01N 59°28' E 024°43'0 0.0
2017-Aug-20 05:31N 59°28' E 024°43'0 0.0
2017-Aug-20 05:01N 59°28' E 024°43'0 0.0
2017-Aug-20 04:30N 59°28' E 024°43'0 0.0
2017-Aug-20 04:00N 59°28' E 024°43'0 0.0
2017-Aug-20 03:31N 59°28' E 024°43'0 0.0
2017-Aug-20 03:01N 59°28' E 024°43'0 0.0
2017-Aug-20 02:30N 59°28' E 024°43'0 0.0
2017-Aug-20 02:00N 59°28' E 024°43'0 0.0
2017-Aug-20 01:31N 59°28' E 024°43'0 0.0
2017-Aug-20 01:00N 59°28' E 024°43'0 0.0
2017-Aug-20 00:30N 59°28' E 024°43'0 0.0
2017-Aug-20 00:00N 59°28' E 024°43'0 0.0
2017-Aug-19 23:30N 59°28' E 024°43'0 0.0
2017-Aug-19 23:00N 59°28' E 024°43'0 0.0
2017-Aug-19 22:30N 59°28' E 024°43'0 0.0
2017-Aug-19 22:00N 59°28' E 024°43'0 0.0
2017-Aug-19 21:30N 59°28' E 024°43'0 0.0
2017-Aug-19 21:00N 59°28' E 024°43'0 0.0
2017-Aug-19 20:30N 59°28' E 024°43'0 0.0
2017-Aug-19 20:00N 59°28' E 024°43'0 0.0
2017-Aug-19 19:30N 59°28' E 024°43'0 0.0
2017-Aug-19 19:00N 59°28' E 024°43'0 0.0
2017-Aug-19 18:30N 59°28' E 024°43'0 0.0
2017-Aug-19 18:00N 59°28' E 024°43'0 0.0
2017-Aug-19 17:30N 59°28' E 024°43'0 0.0
2017-Aug-19 17:01N 59°28' E 024°43'0 0.0
2017-Aug-19 16:30N 59°28' E 024°43'0 0.0
2017-Aug-19 16:00N 59°28' E 024°43'0 0.0
2017-Aug-19 15:30N 59°28' E 024°43'0 0.0
2017-Aug-19 15:00N 59°28' E 024°43'0 0.0
2017-Aug-19 14:00N 59°28' E 024°43'0 0.0
2017-Aug-19 13:31N 59°28' E 024°43'0 0.0
2017-Aug-19 13:00N 59°28' E 024°43'0 0.0
2017-Aug-19 12:30N 59°28' E 024°43'0 0.0
2017-Aug-19 12:00N 59°28' E 024°43'0 0.0
2017-Aug-19 11:30N 59°28' E 024°43'0 0.0
2017-Aug-19 11:00N 59°28' E 024°43'0 0.0
2017-Aug-19 10:30N 59°28' E 024°43'0 0.0
2017-Aug-19 10:00N 59°28' E 024°43'0 0.0
2017-Aug-19 09:30N 59°28' E 024°43'0 0.0
2017-Aug-19 09:01N 59°28' E 024°43'0 0.0
2017-Aug-19 08:30N 59°28' E 024°43'0 0.0
2017-Aug-19 08:00N 59°28' E 024°43'0 0.0
2017-Aug-19 07:30N 59°28' E 024°43'0 0.0
2017-Aug-19 07:00N 59°28' E 024°43'0 0.0
2017-Aug-19 06:30N 59°28' E 024°43'0 0.0
2017-Aug-19 06:00N 59°28' E 024°43'0 0.0
2017-Aug-19 05:30N 59°28' E 024°43'0 0.0
2017-Aug-19 05:00N 59°28' E 024°43'0 0.0
2017-Aug-19 04:30N 59°28' E 024°43'0 0.0
2017-Aug-19 04:00N 59°28' E 024°43'0 0.0
2017-Aug-19 03:30N 59°28' E 024°43'0 0.0
2017-Aug-19 03:00N 59°28' E 024°43'0 0.0
2017-Aug-19 02:31N 59°28' E 024°43'0 0.0
2017-Aug-19 02:00N 59°28' E 024°43'0 0.0
2017-Aug-19 01:30N 59°28' E 024°43'0 0.0
2017-Aug-19 01:00N 59°28' E 024°43'0 0.0
2017-Aug-19 00:30N 59°28' E 024°43'0 0.2
2017-Aug-19 00:00N 59°28' E 024°43'4 7.0
2017-Aug-18 23:30N 59°31' E 024°43'510.1
2017-Aug-18 23:00N 59°36' E 024°40'3 6.7
2017-Aug-18 22:30N 59°37' E 024°47'2 3.5
2017-Aug-18 22:00N 59°35' E 024°49'0 0.0
2017-Aug-18 21:30N 59°35' E 024°49'0 0.0
2017-Aug-18 21:00N 59°35' E 024°49'0 0.0
2017-Aug-18 20:30N 59°35' E 024°49'0 0.0
2017-Aug-18 20:00N 59°35' E 024°49'0 0.0
2017-Aug-18 19:30N 59°35' E 024°49'0 0.2
2017-Aug-18 19:00N 59°35' E 024°49'2 3.7
2017-Aug-18 18:30N 59°34' E 024°52'3 5.6
2017-Aug-18 18:00N 59°32' E 024°56'3 5.3
2017-Aug-18 17:30N 59°30' E 024°57'0 0.4
2017-Aug-18 17:00N 59°30' E 024°56'0 0.0
2017-Aug-18 16:30N 59°30' E 024°56'0 0.0
2017-Aug-18 16:00N 59°30' E 024°56'0 0.0
2017-Aug-18 15:30N 59°30' E 024°56'0 0.0
2017-Aug-18 15:00N 59°30' E 024°56'0 0.0
2017-Aug-18 14:00N 59°30' E 024°56'0 0.0
2017-Aug-18 13:30N 59°30' E 024°56'0 0.0
2017-Aug-18 13:00N 59°30' E 024°56'0 0.0
2017-Aug-18 12:30N 59°30' E 024°56'0 0.0
2017-Aug-18 12:00N 59°30' E 024°56'0 0.0
2017-Aug-18 11:30N 59°30' E 024°56'0 0.1
2017-Aug-18 11:01N 59°30' E 024°57'3 6.8
2017-Aug-18 10:30N 59°33' E 024°54'3 6.2
2017-Aug-18 10:00N 59°35' E 024°49'0 0.0
2017-Aug-18 09:30N 59°35' E 024°49'0 0.0
2017-Aug-18 09:00N 59°35' E 024°49'0 0.0
2017-Aug-18 08:30N 59°35' E 024°49'0 0.0
2017-Aug-18 08:00N 59°35' E 024°49'0 0.0
2017-Aug-18 07:30N 59°35' E 024°49'0 0.0
2017-Aug-18 07:01N 59°35' E 024°49'0 0.1
2017-Aug-18 06:30N 59°35' E 024°49'0 0.2
2017-Aug-18 06:00N 59°35' E 024°49'0 0.5
2017-Aug-18 05:30N 59°35' E 024°50'1 1.2
2017-Aug-18 05:00N 59°34' E 024°51'2 4.0
2017-Aug-18 04:30N 59°33' E 024°54'3 5.3
2017-Aug-18 04:01N 59°31' E 024°57'1 2.5
2017-Aug-18 03:30N 59°30' E 024°58'0 0.0
2017-Aug-18 03:00N 59°30' E 024°58'0 0.0
2017-Aug-18 02:30N 59°30' E 024°58'0 0.0
2017-Aug-18 02:00N 59°30' E 024°58'0 0.0
2017-Aug-18 01:30N 59°30' E 024°58'0 0.0
2017-Aug-18 01:00N 59°30' E 024°58'0 0.0
2017-Aug-18 00:30N 59°30' E 024°58'0 0.0
2017-Aug-18 00:00N 59°30' E 024°58'0 0.0
2017-Aug-17 23:30N 59°30' E 024°58'0 0.0
2017-Aug-17 23:01N 59°30' E 024°58'0 0.0
2017-Aug-17 22:30N 59°30' E 024°58'0 0.0
2017-Aug-17 22:01N 59°30' E 024°58'0 0.1
2017-Aug-17 21:31N 59°30' E 024°57'1 1.0
2017-Aug-17 21:01N 59°30' E 024°57'0 0.0
2017-Aug-17 20:30N 59°30' E 024°57'0 0.0
2017-Aug-17 20:01N 59°30' E 024°57'0 0.0
2017-Aug-17 19:31N 59°30' E 024°57'0 0.0
2017-Aug-17 19:01N 59°30' E 024°57'0 0.0
2017-Aug-17 18:30N 59°30' E 024°57'0 0.0
2017-Aug-17 18:00N 59°30' E 024°57'0 0.0
2017-Aug-17 17:31N 59°30' E 024°57'0 0.0
2017-Aug-17 17:01N 59°30' E 024°57'0 0.0
2017-Aug-17 16:31N 59°30' E 024°57'0 0.0
2017-Aug-17 16:01N 59°30' E 024°57'0 0.0
2017-Aug-17 15:30N 59°30' E 024°57'0 0.0
2017-Aug-17 15:01N 59°30' E 024°57'0 0.0
2017-Aug-17 14:31N 59°30' E 024°57'0 0.0
2017-Aug-17 14:01N 59°30' E 024°57'0 0.0
2017-Aug-17 13:31N 59°30' E 024°57'0 0.0
2017-Aug-17 13:01N 59°30' E 024°57'0 0.0
2017-Aug-17 12:31N 59°30' E 024°57'0 0.0
2017-Aug-17 12:01N 59°30' E 024°57'0 0.0
2017-Aug-17 11:31N 59°30' E 024°57'0 0.0
2017-Aug-17 11:01N 59°30' E 024°57'0 0.0
2017-Aug-17 10:31N 59°30' E 024°57'0 0.0
2017-Aug-17 10:01N 59°30' E 024°57'0 0.0
2017-Aug-17 09:31N 59°30' E 024°57'0 0.0
2017-Aug-17 09:01N 59°30' E 024°57'0 0.0
2017-Aug-17 08:30N 59°30' E 024°57'0 0.0
2017-Aug-17 08:00N 59°30' E 024°57'0 0.0
2017-Aug-17 07:30N 59°30' E 024°57'0 0.0
2017-Aug-17 07:01N 59°30' E 024°57'0 0.0
2017-Aug-17 06:31N 59°30' E 024°57'0 0.0
2017-Aug-17 06:01N 59°30' E 024°57'0 0.0
2017-Aug-17 05:31N 59°30' E 024°57'0 0.0
2017-Aug-17 05:01N 59°30' E 024°57'0 0.0
2017-Aug-17 04:31N 59°30' E 024°57'0 0.0
2017-Aug-17 04:01N 59°30' E 024°57'0 0.3
2017-Aug-17 03:30N 59°30' E 024°56'0 0.0
2017-Aug-17 03:00N 59°30' E 024°56'0 0.0
2017-Aug-17 02:30N 59°30' E 024°56'0 0.0
2017-Aug-17 02:00N 59°30' E 024°56'0 0.0
2017-Aug-17 01:30N 59°30' E 024°56'0 0.0
2017-Aug-17 01:00N 59°30' E 024°56'0 0.0
2017-Aug-17 00:30N 59°30' E 024°56'0 0.0
2017-Aug-17 00:00N 59°30' E 024°56'0 0.0
2017-Aug-16 23:30N 59°30' E 024°56'0 0.0
2017-Aug-16 23:00N 59°30' E 024°56'0 0.0
2017-Aug-16 22:30N 59°30' E 024°56'0 0.0
2017-Aug-16 22:00N 59°30' E 024°56'2 5.0
2017-Aug-16 21:31N 59°32' E 024°55'510.0
2017-Aug-16 21:00N 59°36' E 024°49'4 7.1
2017-Aug-16 20:31N 59°35' E 024°42'4 8.3
2017-Aug-16 20:01N 59°31' E 024°44'510.2
2017-Aug-16 19:31N 59°30' E 024°34'2 3.2
2017-Aug-16 19:01N 59°29' E 024°31'0 0.0
2017-Aug-16 18:30N 59°29' E 024°31'0 0.0
2017-Aug-16 18:01N 59°29' E 024°31'0 0.0
2017-Aug-16 17:30N 59°29' E 024°31'0 0.0
2017-Aug-16 17:00N 59°29' E 024°31'0 0.0
2017-Aug-16 16:31N 59°29' E 024°31'0 0.0
2017-Aug-16 16:00N 59°29' E 024°31'0 0.0
2017-Aug-16 15:31N 59°29' E 024°32'1 2.7
2017-Aug-16 15:01N 59°29' E 024°34'3 5.4
2017-Aug-16 14:31N 59°28' E 024°39'0 0.1
2017-Aug-16 14:00N 59°28' E 024°39'0 0.0
2017-Aug-16 13:31N 59°28' E 024°39'0 0.0
2017-Aug-16 13:00N 59°28' E 024°39'0 0.0
2017-Aug-16 12:30N 59°28' E 024°39'0 0.0
2017-Aug-16 12:01N 59°28' E 024°39'0 0.0
2017-Aug-16 11:31N 59°28' E 024°39'0 0.0
2017-Aug-16 11:00N 59°28' E 024°39'0 0.0
2017-Aug-16 10:30N 59°28' E 024°39'0 0.0
2017-Aug-16 10:00N 59°28' E 024°39'0 0.0
2017-Aug-16 09:30N 59°28' E 024°39'0 0.0
2017-Aug-16 09:01N 59°28' E 024°39'0 0.0
2017-Aug-16 08:31N 59°28' E 024°39'0 0.0
2017-Aug-16 08:00N 59°28' E 024°39'0 0.0
2017-Aug-16 07:30N 59°28' E 024°39'0 0.0
2017-Aug-16 07:00N 59°28' E 024°39'0 0.0
2017-Aug-16 06:30N 59°28' E 024°39'0 0.0
2017-Aug-16 06:01N 59°28' E 024°39'0 0.0
2017-Aug-16 05:30N 59°28' E 024°39'0 0.0
2017-Aug-16 05:00N 59°28' E 024°39'0 0.0
2017-Aug-16 04:30N 59°28' E 024°39'0 0.0
2017-Aug-16 04:01N 59°28' E 024°39'0 0.0
2017-Aug-16 03:30N 59°28' E 024°39'0 0.0
2017-Aug-16 03:00N 59°28' E 024°39'0 0.0
2017-Aug-16 02:31N 59°28' E 024°39'0 0.0
2017-Aug-16 02:00N 59°28' E 024°39'0 0.0
2017-Aug-16 01:31N 59°28' E 024°39'0 0.0
2017-Aug-16 01:00N 59°28' E 024°39'0 0.0
2017-Aug-16 00:31N 59°28' E 024°39'0 0.0
2017-Aug-16 00:00N 59°28' E 024°39'0 0.0
2017-Aug-15 23:30N 59°28' E 024°39'0 0.0
2017-Aug-15 23:00N 59°28' E 024°39'0 0.0
2017-Aug-15 22:31N 59°28' E 024°39'0 0.0
2017-Aug-15 22:00N 59°28' E 024°39'0 0.0
2017-Aug-15 21:30N 59°28' E 024°39'0 0.0
2017-Aug-15 21:01N 59°28' E 024°39'0 0.0
2017-Aug-15 20:31N 59°28' E 024°39'0 0.0
2017-Aug-15 20:00N 59°28' E 024°39'0 0.0
2017-Aug-15 19:31N 59°28' E 024°39'0 0.0
2017-Aug-15 19:00N 59°28' E 024°39'0 0.0
2017-Aug-15 18:30N 59°28' E 024°39'0 0.0
2017-Aug-15 18:00N 59°28' E 024°39'0 0.0
2017-Aug-15 17:31N 59°28' E 024°39'0 0.0
2017-Aug-15 17:00N 59°28' E 024°39'0 0.0
2017-Aug-15 16:30N 59°28' E 024°39'0 0.0
2017-Aug-15 16:00N 59°28' E 024°39'0 0.0
2017-Aug-15 15:31N 59°28' E 024°39'0 0.0
2017-Aug-15 15:01N 59°28' E 024°39'0 0.0
2017-Aug-15 14:31N 59°28' E 024°39'0 0.0
2017-Aug-15 14:01N 59°28' E 024°39'0 0.0
2017-Aug-15 13:30N 59°28' E 024°39'0 0.0
2017-Aug-15 13:00N 59°28' E 024°39'0 0.0
2017-Aug-15 12:30N 59°28' E 024°39'0 0.0
2017-Aug-15 12:01N 59°28' E 024°39'0 0.0
2017-Aug-15 11:30N 59°28' E 024°39'3 6.3
2017-Aug-15 11:00N 59°31' E 024°37'4 8.9
2017-Aug-15 10:31N 59°35' E 024°41'4 7.6
2017-Aug-15 10:01N 59°38' E 024°45'3 6.0
2017-Aug-15 09:31N 59°35' E 024°49'0 0.1
2017-Aug-15 09:00N 59°35' E 024°49'0 0.1
2017-Aug-15 08:31N 59°35' E 024°49'0 0.0
2017-Aug-15 08:00N 59°35' E 024°49'0 0.0
2017-Aug-15 07:31N 59°35' E 024°49'0 0.1
2017-Aug-15 07:01N 59°35' E 024°49'4 7.7
2017-Aug-15 06:30N 59°33' E 024°55'3 6.5
2017-Aug-15 06:00N 59°30' E 024°56'0 0.0
2017-Aug-15 05:31N 59°30' E 024°56'0 0.0
2017-Aug-15 05:01N 59°30' E 024°56'0 0.0
2017-Aug-15 04:31N 59°30' E 024°56'0 0.0
2017-Aug-15 04:00N 59°30' E 024°56'0 0.0
2017-Aug-15 03:30N 59°30' E 024°56'0 0.0
2017-Aug-15 03:00N 59°30' E 024°56'0 0.0
2017-Aug-15 02:30N 59°30' E 024°56'0 0.0
2017-Aug-15 02:00N 59°30' E 024°56'0 0.0
2017-Aug-15 01:30N 59°30' E 024°56'0 0.0
2017-Aug-15 01:01N 59°30' E 024°56'0 0.0
2017-Aug-15 00:31N 59°30' E 024°56'0 0.1
2017-Aug-15 00:01N 59°30' E 024°56'0 0.0
2017-Aug-14 23:30N 59°30' E 024°56'0 0.0
2017-Aug-14 23:00N 59°30' E 024°56'0 0.0
2017-Aug-14 22:31N 59°30' E 024°56'0 0.0
2017-Aug-14 22:01N 59°30' E 024°56'0 0.0
2017-Aug-14 21:31N 59°30' E 024°57'0 0.9
2017-Aug-14 21:01N 59°30' E 024°57'0 0.0
2017-Aug-14 20:31N 59°30' E 024°57'0 0.0
2017-Aug-14 20:00N 59°30' E 024°57'0 0.0
2017-Aug-14 19:30N 59°30' E 024°57'0 0.0
2017-Aug-14 19:00N 59°30' E 024°57'0 0.0
2017-Aug-14 18:30N 59°30' E 024°57'0 0.0
2017-Aug-14 18:01N 59°30' E 024°57'0 0.0
2017-Aug-14 17:30N 59°30' E 024°57'0 0.0
2017-Aug-14 17:01N 59°30' E 024°57'0 0.0
2017-Aug-14 16:30N 59°30' E 024°57'0 0.0
2017-Aug-14 16:01N 59°30' E 024°57'2 3.6
2017-Aug-14 15:30N 59°31' E 024°57'510.6
2017-Aug-14 15:01N 59°35' E 024°50'4 8.8
2017-Aug-14 14:30N 59°37' E 024°41'510.0
2017-Aug-14 14:00N 59°32' E 024°44'510.3
2017-Aug-14 13:31N 59°30' E 024°35'1 2.5
2017-Aug-14 13:01N 59°29' E 024°33'0 0.0
2017-Aug-14 12:31N 59°29' E 024°33'0 0.0
2017-Aug-14 12:00N 59°29' E 024°33'0 0.0
2017-Aug-14 11:31N 59°29' E 024°33'0 0.0
2017-Aug-14 11:00N 59°29' E 024°33'0 0.0
2017-Aug-14 10:30N 59°29' E 024°33'0 0.2
2017-Aug-14 10:01N 59°29' E 024°33'1 1.8
2017-Aug-14 09:30N 59°29' E 024°31'0 0.0
2017-Aug-14 09:00N 59°29' E 024°31'0 0.0
2017-Aug-14 08:31N 59°29' E 024°31'0 0.0
2017-Aug-14 08:01N 59°29' E 024°31'0 0.0
2017-Aug-14 07:31N 59°29' E 024°31'0 0.0
2017-Aug-14 07:00N 59°29' E 024°31'0 0.0
2017-Aug-14 06:31N 59°29' E 024°31'0 0.0
2017-Aug-14 06:00N 59°29' E 024°31'0 0.0
2017-Aug-14 05:31N 59°29' E 024°31'3 5.5
2017-Aug-14 05:00N 59°28' E 024°36'2 3.2
2017-Aug-14 04:31N 59°28' E 024°39'0 0.0
2017-Aug-14 04:00N 59°28' E 024°39'0 0.0
2017-Aug-14 03:30N 59°28' E 024°39'0 0.0
2017-Aug-14 03:00N 59°28' E 024°39'0 0.0
2017-Aug-14 02:31N 59°28' E 024°39'0 0.0
2017-Aug-14 02:01N 59°28' E 024°39'0 0.0
2017-Aug-14 01:31N 59°28' E 024°39'0 0.0
2017-Aug-14 01:00N 59°28' E 024°39'0 0.0
2017-Aug-14 00:31N 59°28' E 024°39'0 0.0
2017-Aug-14 00:01N 59°28' E 024°39'0 0.0
2017-Aug-13 23:31N 59°28' E 024°39'0 0.0
2017-Aug-13 23:01N 59°28' E 024°39'0 0.0
2017-Aug-13 22:30N 59°28' E 024°39'0 0.0
2017-Aug-13 22:00N 59°28' E 024°39'1 1.6
2017-Aug-13 21:31N 59°28' E 024°37'4 7.5
2017-Aug-13 21:01N 59°29' E 024°30'0 0.0
2017-Aug-13 20:31N 59°29' E 024°30'0 0.0
2017-Aug-13 20:00N 59°29' E 024°30'0 0.0
2017-Aug-13 19:30N 59°29' E 024°30'0 0.0
2017-Aug-13 19:01N 59°29' E 024°30'0 0.0
2017-Aug-13 18:30N 59°29' E 024°30'0 0.1
2017-Aug-13 18:00N 59°29' E 024°30'0 0.0
2017-Aug-13 17:30N 59°29' E 024°30'0 0.0
2017-Aug-13 17:00N 59°29' E 024°30'2 3.7
2017-Aug-13 16:30N 59°30' E 024°34'5 9.6
2017-Aug-13 16:01N 59°34' E 024°39'4 8.9
2017-Aug-13 15:30N 59°38' E 024°44'5 9.3
2017-Aug-13 15:01N 59°35' E 024°50'0 0.4
2017-Aug-13 14:30N 59°35' E 024°50'0 0.2
2017-Aug-13 14:00N 59°34' E 024°50'0 0.0
2017-Aug-13 13:31N 59°34' E 024°50'0 0.7
2017-Aug-13 13:00N 59°34' E 024°50'1 2.6
2017-Aug-13 12:31N 59°34' E 024°53'2 3.7
2017-Aug-13 12:01N 59°33' E 024°56'3 5.5
2017-Aug-13 11:31N 59°30' E 024°57'1 1.3
2017-Aug-13 11:00N 59°30' E 024°56'0 0.0
2017-Aug-13 10:30N 59°30' E 024°56'0 0.0
2017-Aug-13 10:01N 59°30' E 024°56'0 0.0
2017-Aug-13 09:30N 59°30' E 024°56'0 0.0
2017-Aug-13 09:00N 59°30' E 024°56'0 0.0
2017-Aug-13 08:31N 59°30' E 024°56'0 0.0
2017-Aug-13 08:00N 59°30' E 024°56'0 0.0
2017-Aug-13 07:31N 59°30' E 024°56'0 0.0
2017-Aug-13 07:00N 59°30' E 024°56'0 0.0
2017-Aug-13 06:31N 59°30' E 024°56'0 0.4
2017-Aug-13 06:00N 59°30' E 024°57'0 0.0
2017-Aug-13 05:31N 59°30' E 024°57'0 0.0
2017-Aug-13 05:01N 59°30' E 024°57'0 0.0
2017-Aug-13 04:31N 59°30' E 024°57'0 0.0
2017-Aug-13 04:00N 59°30' E 024°57'0 0.0
2017-Aug-13 03:31N 59°30' E 024°57'0 0.0
2017-Aug-13 03:00N 59°30' E 024°57'0 0.2
2017-Aug-13 02:31N 59°30' E 024°57'0 0.4
2017-Aug-13 02:01N 59°30' E 024°56'0 0.0
2017-Aug-13 01:31N 59°30' E 024°56'0 0.0
2017-Aug-13 01:01N 59°30' E 024°56'0 0.0
2017-Aug-13 00:31N 59°30' E 024°56'1 1.6
2017-Aug-13 00:01N 59°30' E 024°58'5 9.4
2017-Aug-12 23:31N 59°34' E 024°52'2 3.2
2017-Aug-12 23:00N 59°35' E 024°49'0 0.1
2017-Aug-12 22:30N 59°35' E 024°49'1 1.3
2017-Aug-12 22:01N 59°35' E 024°49'0 0.0
2017-Aug-12 21:31N 59°35' E 024°49'0 0.0
2017-Aug-12 21:01N 59°35' E 024°49'0 0.1
2017-Aug-12 20:30N 59°35' E 024°49'2 4.6
2017-Aug-12 20:01N 59°37' E 024°46'3 6.3
2017-Aug-12 19:30N 59°34' E 024°43'4 8.0
2017-Aug-12 19:00N 59°30' E 024°40'4 8.6
2017-Aug-12 18:31N 59°29' E 024°32'0 0.2
2017-Aug-12 18:01N 59°29' E 024°32'0 0.1
2017-Aug-12 17:30N 59°29' E 024°32'0 0.1
2017-Aug-12 17:00N 59°29' E 024°32'0 0.2
2017-Aug-12 16:31N 59°29' E 024°32'0 0.0
2017-Aug-12 16:01N 59°29' E 024°32'0 0.2
2017-Aug-12 15:31N 59°29' E 024°32'0 0.3
2017-Aug-12 15:00N 59°29' E 024°32'0 0.0
2017-Aug-12 14:31N 59°29' E 024°32'0 0.3
2017-Aug-12 14:01N 59°29' E 024°32'1 1.1
2017-Aug-12 13:30N 59°29' E 024°31'0 0.0
2017-Aug-12 13:01N 59°29' E 024°32'0 0.0
2017-Aug-12 12:31N 59°29' E 024°32'  

Dump ship's entire track history